PH22A EHTE-EHTE

Flight info

Callsign PH22A
Flight time N/A
Altitude 3000
Route EHTW DCT RKN
Aircraft C172/L-SFG/C

Departure

Time 2026-05-07 15:58
Airport Teuge Airport (EHTE)

Arrival

Time N/A
Airport Teuge Airport (EHTE)
Time Latitude Longitude Altitude Speed Heading
2026-05-07 15:43 52.24134 6.05100 19 ft 0 kts 186°
2026-05-07 15:52 52.24133 6.05100 21 ft 0 kts 187°
2026-05-07 15:52 52.24125 6.05093 19 ft 7 kts 240°
2026-05-07 15:52 52.24140 6.05008 19 ft 8 kts 315°
2026-05-07 15:52 52.24166 6.04998 19 ft 0 kts 358°
2026-05-07 15:53 52.24173 6.04998 19 ft 5 kts 359°
2026-05-07 15:53 52.24185 6.04902 19 ft 16 kts 268°
2026-05-07 15:54 52.24174 6.04657 19 ft 25 kts 267°
2026-05-07 15:54 52.24162 6.04394 19 ft 21 kts 266°
2026-05-07 15:54 52.24192 6.04218 19 ft 14 kts 326°
2026-05-07 15:54 52.24202 6.04207 19 ft 0 kts 324°
2026-05-07 15:56 52.24252 6.04248 18 ft 19 kts 85°
2026-05-07 15:57 52.24273 6.04755 17 ft 68 kts 83°
2026-05-07 15:57 52.24304 6.05626 115 ft 83 kts 84°
2026-05-07 15:57 52.24350 6.06607 287 ft 85 kts 88°
2026-05-07 15:57 52.24357 6.07560 446 ft 87 kts 86°
2026-05-07 15:58 52.24336 6.08568 553 ft 94 kts 88°
2026-05-07 15:58 52.24345 6.09665 656 ft 98 kts 88°
2026-05-07 15:58 52.24328 6.10756 840 ft 96 kts 87°
2026-05-07 15:58 52.24333 6.11860 985 ft 98 kts 84°
2026-05-07 15:59 52.24370 6.12942 1129 ft 96 kts 83°
2026-05-07 15:59 52.24428 6.14055 1201 ft 97 kts 81°
2026-05-07 15:59 52.24500 6.15169 1283 ft 99 kts 73°
2026-05-07 15:59 52.24766 6.16181 1382 ft 97 kts 64°
2026-05-07 16:00 52.24961 6.17260 1444 ft 101 kts 78°
2026-05-07 16:00 52.24950 6.18369 1530 ft 103 kts 99°
2026-05-07 16:00 52.24750 6.19515 1558 ft 106 kts 105°
2026-05-07 16:00 52.24546 6.20690 1579 ft 107 kts 104°
2026-05-07 16:01 52.24251 6.21801 1617 ft 110 kts 119°
2026-05-07 16:01 52.23847 6.22868 1650 ft 108 kts 112°
2026-05-07 16:01 52.23610 6.24008 1708 ft 107 kts 103°
2026-05-07 16:01 52.23358 6.25158 1787 ft 106 kts 113°
2026-05-07 16:02 52.22955 6.26193 1802 ft 111 kts 123°
2026-05-07 16:02 52.22704 6.27314 1817 ft 107 kts 89°
2026-05-07 16:02 52.22842 6.28463 1878 ft 102 kts 65°
2026-05-07 16:02 52.23197 6.29458 1895 ft 101 kts 53°
2026-05-07 16:03 52.23561 6.30456 1889 ft 107 kts 72°
2026-05-07 16:03 52.23673 6.31663 1914 ft 107 kts 84°
2026-05-07 16:03 52.23608 6.32883 1914 ft 108 kts 94°
2026-05-07 16:03 52.23489 6.34108 1908 ft 110 kts 97°
2026-05-07 16:04 52.23447 6.35355 1835 ft 112 kts 79°
2026-05-07 16:04 52.23604 6.36589 1843 ft 109 kts 78°
2026-05-07 16:04 52.23612 6.37826 1789 ft 115 kts 99°
2026-05-07 16:04 52.23222 6.38959 1744 ft 119 kts 139°
2026-05-07 16:05 52.22411 6.39269 1578 ft 129 kts 192°
2026-05-07 16:05 52.21564 6.39230 1642 ft 120 kts 163°
2026-05-07 16:05 52.20843 6.39884 1636 ft 116 kts 134°
2026-05-07 16:05 52.20366 6.40912 1652 ft 113 kts 122°
2026-05-07 16:06 52.19963 6.42025 1582 ft 116 kts 100°
2026-05-07 16:06 52.20054 6.43227 1634 ft 105 kts 60°
2026-05-07 16:06 52.20520 6.44168 1594 ft 108 kts 49°
2026-05-07 16:06 52.20976 6.45110 1619 ft 106 kts 53°
2026-05-07 16:07 52.21444 6.46006 1621 ft 106 kts 49°
2026-05-07 16:07 52.21936 6.46886 1636 ft 105 kts 48°
2026-05-07 16:07 52.22421 6.47774 1631 ft 104 kts 50°
2026-05-07 16:07 52.22871 6.48698 1593 ft 106 kts 52°
2026-05-07 16:08 52.23278 6.49725 1611 ft 106 kts 63°
2026-05-07 16:08 52.23541 6.50856 1584 ft 110 kts 74°
2026-05-07 16:08 52.23705 6.52060 1633 ft 104 kts 71°
2026-05-07 16:08 52.23942 6.53186 1635 ft 107 kts 70°
2026-05-07 16:09 52.24172 6.54335 1673 ft 105 kts 70°
2026-05-07 16:09 52.24434 6.55451 1686 ft 108 kts 69°